• Join FlightAware (Why Join?)
  • Login
  • US Flag 
02:16PM EDT


 

Airport Tracker/Info


-or-


 

Live Flight TrackerFlight Track Log ✈ AWE2180 ✈ 19-Apr-2013 ✈ KDCA - KLGA

Flight Track Log - Related Links

Times and Time Zones

All times are in EDT time to prevent confusion due to time zone crossing. See the AWE2180 flight status page for this flight to view local times or setup timezone preferences in your user account.

Time Position Orientation Groundspeed Altitude Reporting Facility
EDT Latitude Longitude Course Direction KTS MPH feet Rate Location/Type
06:13PM 38.8167 -77.0333 90° East 139 160 2,000  Level Potomac TRACON
06:15PM 38.9167 -76.7466 90° East  Level FlightAware Approximate
06:15PM 38.7428 -76.9756 149° Southeast 168 193 6,700  Level Washington Center
06:16PM 38.9448 -76.6491 67° East  Level FlightAware Approximate
06:16PM 38.8122 -76.9183 33° Northeast 148 170 9,700  Level Washington Center
06:17PM 38.9751 -76.5496 72° East  Level FlightAware Approximate
06:17PM 38.8836 -76.8611 32° Northeast 204 235 12,400  Level Washington Center
06:18PM 38.9988 -76.4471 74° East  Level FlightAware Approximate
06:18PM 38.9183 -76.7494 68° East 262 302 14,200  Level Washington Center
06:19PM 39.0167 -76.3434 90° East  Level FlightAware Approximate
06:19PM 38.9550 -76.6139 71° East 335 386 15,300  Level Washington Center
06:20PM 38.9978 -76.4756 68° East 388 447 17,700 1,800 Climbing Washington Center
06:21PM 39.0278 -76.3239 76° East 415 478 19,000 600 Climbing Washington Center
06:22PM 39.0433 -76.1583 83° East 425 489 19,000  Level Washington Center
06:23PM 39.0461 -76.0086 89° East 425 489 19,000  Level Washington Center
06:24PM 39.0547 -75.8617 86° East 420 483 19,000  Level Washington Center
06:25PM 39.0842 -75.7147 75° East 420 483 19,000  Level Washington Center
06:26PM 39.1717 -75.5997 46° Northeast 418 481 19,000  Level Washington Center
06:27PM 39.2633 -75.4925 42° Northeast 429 494 19,000  Level Washington Center
06:28PM 39.3694 -75.3956 35° Northeast 434 499 19,000 -180 Level Washington Center
06:29PM 39.4756 -75.3011 34° Northeast 450 518 18,700 -780 Descending Washington Center
06:30PM 39.5753 -75.2092 35° Northeast 455 524 17,500 -900 Descending Washington Center
06:31PM 39.6625 -75.1278 36° Northeast 442 509 17,000 -1,020 Descending Washington Center
06:32PM 39.7767 -75.0300 33° Northeast 442 509 15,500 -1,500 Descending Washington Center
06:33PM 39.8661 -74.9536 33° Northeast 442 509 14,100 -1,500 Descending Washington Center
06:34PM 39.9500 -74.8667 38° Northeast 406 467 12,800 -1,500 Descending New York TRACON
06:35PM 40.0167 -74.7500 53° Northeast 403 464 11,400 -1,380 Descending New York TRACON
06:36PM 40.1000 -74.6500 43° Northeast 380 437 10,100 -780 Descending New York TRACON
06:37PM 40.1667 -74.5667 44° Northeast 381 438 10,000 -120 Descending New York TRACON
06:38PM 40.2333 -74.4500 53° Northeast 359 413 9,900 -900 Descending New York TRACON
06:39PM 40.3000 -74.3667 44° Northeast 339 390 8,200 -1,500 Descending New York TRACON
06:40PM 40.3667 -74.2833 44° Northeast 340 391 7,000 -960 Descending New York TRACON
06:41PM 40.4500 -74.2000 37° Northeast 334 384 6,300 -1,140 Descending New York TRACON
06:42PM 40.5167 -74.1333 37° Northeast 323 372 4,800 -1,200 Descending New York TRACON
06:43PM 40.5833 -74.0667 37° Northeast 321 369 4,000 -480 Descending New York TRACON
06:44PM 40.6667 -74.0500 North 313 360 4,000  Level New York TRACON
06:45PM 40.7500 -74.0167 17° North 312 359 4,000  Level New York TRACON
06:46PM 40.8167 -73.9500 37° Northeast 319 367 4,000 -420 Level New York TRACON
06:48PM 40.9333 -73.8333 37° Northeast 240 276 2,800 -720 Descending New York TRACON
06:49PM 40.9167 -73.7833 114° Southeast 169 194 1,900 -900 Descending New York TRACON